Decoded Metar for PAEI (FAIRBANKS in AK, USA) (IATA:EIL) | Meteo·Mobile Aviation Weather
aviador You're here:

PAEI Decoded Metar

FAIRBANKS in AK, USA
Report Time2018-08-19 04:56:00
UTC Time2018-08-19 05:27:05
Flight Rules vfr VFR
WindCalm
Visibility9999 m
Phenomena:N/A
Clouds:N/A
Expected CloudBase > 3,600 ft AGL from Temp-Dew spread
CeilingNone
Temp16°C (ISA +2)
Dew Point07°C (55% RH)
AAT15.3°C
QNH1022 hPa
Density Alt630 ft
Elevation548 ft
Report Wrong Elevation
Raw Report
PAEI 190456Z AUTO 00000KT 10SM CLR 16/07 A3018=

Extra information for PAEI:More info

Metar Taf Metar & Taf Last 4 Metars F.Rules Stats Wind Profile Meteogram Temp Stats Airport Information Weather charts Add Link Nearby VenuesMetar ALERT Operation Metar Decoded Social comments

AIRNAV info for PAEI